createdAt,value
2019-04-20T00:00:00.773Z,99.90
2019-04-20T00:02:29.619Z,99.90
2019-04-20T00:04:59.101Z,99.90
2019-04-20T00:07:32.378Z,99.90
2019-04-20T00:10:07.623Z,99.90
2019-04-20T00:12:36.796Z,99.90
2019-04-20T00:15:00.606Z,99.90
2019-04-20T00:17:30.662Z,99.90
2019-04-20T00:20:05.806Z,99.90
2019-04-20T00:22:39.338Z,99.90
2019-04-20T00:25:20.403Z,99.90
2019-04-20T00:28:25.073Z,99.90
2019-04-20T00:30:52.925Z,99.90
2019-04-20T00:33:21.662Z,99.90
2019-04-20T00:35:36.366Z,99.90
2019-04-20T00:38:05.690Z,99.90
2019-04-20T00:40:36.190Z,99.90
2019-04-20T00:43:06.647Z,99.90
2019-04-20T00:45:40.091Z,99.90
2019-04-20T00:48:19.091Z,99.90
2019-04-20T00:50:51.269Z,99.90
2019-04-20T00:53:17.069Z,99.90
2019-04-20T00:55:38.110Z,99.90
2019-04-20T00:58:17.320Z,99.90
2019-04-20T01:01:04.116Z,99.90
2019-04-20T01:03:24.817Z,99.90
2019-04-20T01:06:17.422Z,99.90
2019-04-20T01:08:31.955Z,99.90
2019-04-20T01:11:01.504Z,99.90
2019-04-20T01:13:31.814Z,99.90
2019-04-20T01:16:06.230Z,99.90
2019-04-20T01:18:31.577Z,99.90
2019-04-20T01:21:06.757Z,99.90
2019-04-20T01:23:38.264Z,99.90
2019-04-20T01:26:06.081Z,99.90
2019-04-20T01:28:46.870Z,99.90
2019-04-20T01:31:15.712Z,99.90
2019-04-20T01:33:48.491Z,99.90
2019-04-20T01:36:27.872Z,99.90
2019-04-20T01:38:49.729Z,99.90
2019-04-20T01:41:05.429Z,99.90
2019-04-20T01:43:35.314Z,99.90
2019-04-20T01:46:11.159Z,99.90
2019-04-20T01:48:37.155Z,99.90
2019-04-20T01:51:11.882Z,99.90
2019-04-20T01:53:51.366Z,99.90
2019-04-20T01:56:21.790Z,99.90
2019-04-20T01:58:58.515Z,99.90
2019-04-20T02:01:29.675Z,99.90
2019-04-20T02:04:15.800Z,99.90
2019-04-20T02:06:48.091Z,99.90
2019-04-20T02:09:16.764Z,99.90
2019-04-20T02:11:44.715Z,99.90
2019-04-20T02:14:13.737Z,99.90
2019-04-20T02:16:47.360Z,99.90
2019-04-20T02:19:26.360Z,99.90
2019-04-20T02:22:01.448Z,99.90
2019-04-20T02:24:16.033Z,99.90
2019-04-20T02:26:45.103Z,99.90
2019-04-20T02:29:37.357Z,99.90
2019-04-20T02:34:59.235Z,99.90
2019-04-20T02:37:45.162Z,99.90
2019-04-20T02:40:01.353Z,99.90
2019-04-20T02:42:45.077Z,99.90
2019-04-20T02:45:08.926Z,99.90
2019-04-20T02:50:09.090Z,99.90
2019-04-20T02:55:09.537Z,99.90
2019-04-20T02:57:44.170Z,99.90
2019-04-20T03:02:23.753Z,99.90
2019-04-20T03:04:45.870Z,99.90
2019-04-20T03:07:25.448Z,99.90
2019-04-20T03:09:58.261Z,99.90
2019-04-20T03:12:32.873Z,99.90
2019-04-20T03:14:55.277Z,99.90
2019-04-20T03:17:32.885Z,99.90
2019-04-20T03:19:57.239Z,99.90
2019-04-20T03:22:48.337Z,99.90
2019-04-20T03:25:06.169Z,99.90
2019-04-20T03:27:33.072Z,99.90
2019-04-20T03:30:22.778Z,99.90
2019-04-20T03:35:20.042Z,99.90
2019-04-20T03:37:59.834Z,99.90
2019-04-20T03:40:09.936Z,99.90
2019-04-20T03:42:24.468Z,99.90
2019-04-20T03:45:00.512Z,99.90
2019-04-20T03:47:35.909Z,99.90
2019-04-20T03:50:18.546Z,99.90
2019-04-20T03:52:44.954Z,99.90
2019-04-20T03:55:33.774Z,99.90
2019-04-20T03:58:04.554Z,99.90
2019-04-20T04:00:50.779Z,99.90
2019-04-20T04:03:31.922Z,99.90
2019-04-20T04:06:03.042Z,99.90
2019-04-20T04:08:28.881Z,99.90
2019-04-20T04:11:12.391Z,99.90
2019-04-20T04:13:24.834Z,99.90
2019-04-20T04:15:59.424Z,99.90
2019-04-20T04:18:31.927Z,99.90
2019-04-20T04:21:01.935Z,99.90
2019-04-20T04:23:58.955Z,99.90
2019-04-20T04:26:12.941Z,99.90
2019-04-20T04:28:43.325Z,99.90
2019-04-20T04:31:16.578Z,99.90
2019-04-20T04:36:15.504Z,99.90
2019-04-20T04:38:55.698Z,99.90
2019-04-20T04:41:24.283Z,99.90
2019-04-20T04:43:52.126Z,99.90
2019-04-20T04:46:01.695Z,99.90
2019-04-20T04:48:35.704Z,99.90
2019-04-20T04:51:07.202Z,99.90
2019-04-20T04:53:44.247Z,99.90
2019-04-20T04:56:07.363Z,99.90
2019-04-20T04:58:34.024Z,99.90
2019-04-20T05:01:08.359Z,99.90
2019-04-20T05:03:58.271Z,99.90
2019-04-20T05:06:28.097Z,99.90
2019-04-20T05:08:47.378Z,99.90
2019-04-20T05:11:13.463Z,99.90
2019-04-20T05:13:50.609Z,99.90
2019-04-20T05:16:31.622Z,99.90
2019-04-20T05:19:07.738Z,99.90
2019-04-20T05:21:39.817Z,99.90
2019-04-20T05:24:07.286Z,99.90
2019-04-20T05:26:50.561Z,99.90
2019-04-20T05:29:08.448Z,99.90
2019-04-20T05:31:39.674Z,99.90
2019-04-20T05:34:26.319Z,99.90
2019-04-20T05:36:49.273Z,99.90
2019-04-20T05:39:26.852Z,99.90
2019-04-20T05:41:54.432Z,99.90
2019-04-20T05:44:19.298Z,99.90
2019-04-20T05:47:00.933Z,99.90
2019-04-20T05:49:26.980Z,99.90
2019-04-20T05:51:54.079Z,99.90
2019-04-20T05:54:36.482Z,99.90
2019-04-20T05:57:07.826Z,99.90
2019-04-20T05:59:27.086Z,99.90
2019-04-20T06:02:03.805Z,99.90
2019-04-20T06:04:49.104Z,99.90
2019-04-20T06:07:09.334Z,99.90
2019-04-20T06:09:33.583Z,99.90
2019-04-20T06:12:17.880Z,99.90
2019-04-20T06:14:31.599Z,99.90
2019-04-20T06:17:11.175Z,99.90
2019-04-20T06:19:42.219Z,99.90
2019-04-20T06:22:21.740Z,99.90
2019-04-20T06:25:14.556Z,99.90
2019-04-20T06:27:35.078Z,99.90
2019-04-20T06:30:03.967Z,99.90
2019-04-20T06:33:18.935Z,99.90
2019-04-20T06:36:05.640Z,99.90
2019-04-20T06:38:29.632Z,99.90
2019-04-20T06:43:17.354Z,99.90
2019-04-20T06:45:51.216Z,99.90
2019-04-20T06:48:22.786Z,99.90
2019-04-20T06:50:44.775Z,99.90
2019-04-20T06:53:23.912Z,99.90
2019-04-20T06:56:01.135Z,99.90
2019-04-20T06:58:38.966Z,99.90
2019-04-20T07:00:58.111Z,99.90
2019-04-20T07:03:36.111Z,99.90
2019-04-20T07:06:17.834Z,99.90
2019-04-20T07:08:40.870Z,99.90
2019-04-20T07:10:58.333Z,99.90
2019-04-20T07:13:20.358Z,99.90
2019-04-20T07:15:54.199Z,99.90
2019-04-20T07:18:35.306Z,99.90
2019-04-20T07:21:05.756Z,99.90
2019-04-20T07:23:54.422Z,99.90
2019-04-20T07:26:13.825Z,99.90
2019-04-20T07:28:41.142Z,99.90
2019-04-20T07:31:06.816Z,99.90
2019-04-20T07:33:44.630Z,99.90
2019-04-20T07:36:20.073Z,99.90
2019-04-20T07:38:50.011Z,99.90
2019-04-20T07:41:23.742Z,99.90
2019-04-20T07:43:52.925Z,99.90
2019-04-20T07:46:34.904Z,99.90
2019-04-20T07:48:50.697Z,99.90
2019-04-20T07:51:06.816Z,99.90
2019-04-20T07:53:44.112Z,99.90
2019-04-20T07:56:25.824Z,99.90
2019-04-20T07:58:40.038Z,99.90
2019-04-20T08:01:44.917Z,99.90
2019-04-20T08:04:24.434Z,99.90
2019-04-20T08:06:43.170Z,99.90
2019-04-20T08:09:19.298Z,99.90
2019-04-20T08:12:07.788Z,99.90
2019-04-20T08:14:35.383Z,99.90
2019-04-20T08:17:27.253Z,99.90
2019-04-20T08:19:33.219Z,99.90
2019-04-20T08:22:00.869Z,99.90
2019-04-20T08:24:27.821Z,99.90
2019-04-20T08:26:50.281Z,99.90
2019-04-20T08:29:27.111Z,99.90
2019-04-20T08:32:16.066Z,99.90
2019-04-20T08:34:49.050Z,99.90
2019-04-20T08:37:15.872Z,99.90
2019-04-20T08:39:58.686Z,99.90
2019-04-20T08:42:30.451Z,99.90
2019-04-20T08:47:39.581Z,99.10
2019-04-20T08:53:03.573Z,97.50
2019-04-20T08:55:09.216Z,96.40
2019-04-20T08:57:26.915Z,96.30
2019-04-20T09:00:00.656Z,94.80
2019-04-20T09:02:28.274Z,94.30
2019-04-20T09:05:04.430Z,93.20
2019-04-20T09:07:30.624Z,93.30
2019-04-20T09:10:25.693Z,91.30
2019-04-20T09:12:47.742Z,91.00
2019-04-20T09:14:59.645Z,91.00
2019-04-20T09:17:45.210Z,92.60
2019-04-20T09:20:14.315Z,92.10
2019-04-20T09:23:06.948Z,92.00
2019-04-20T09:28:23.925Z,93.00
2019-04-20T09:31:02.595Z,93.30
2019-04-20T09:33:43.109Z,93.60
2019-04-20T09:36:17.997Z,94.00
2019-04-20T09:39:00.053Z,93.20
2019-04-20T09:41:58.964Z,93.20
2019-04-20T09:44:09.392Z,93.90
2019-04-20T09:46:44.420Z,93.30
2019-04-20T09:49:20.687Z,93.40
2019-04-20T09:51:55.929Z,93.50
2019-04-20T09:54:31.056Z,92.00
2019-04-20T09:57:07.639Z,91.90
2019-04-20T09:59:28.297Z,92.00
2019-04-20T10:01:48.460Z,92.30
2019-04-20T10:04:13.286Z,91.00
2019-04-20T10:06:43.476Z,92.90
2019-04-20T10:09:13.633Z,91.50
2019-04-20T10:11:45.308Z,91.10
2019-04-20T10:14:14.407Z,88.30
2019-04-20T10:16:44.152Z,87.60
2019-04-20T10:19:20.587Z,82.80
2019-04-20T10:21:45.700Z,83.70
2019-04-20T10:24:15.035Z,82.70
2019-04-20T10:26:44.935Z,74.70
2019-04-20T10:29:15.354Z,74.70
2019-04-20T10:31:51.435Z,69.00
2019-04-20T10:34:18.010Z,66.80
2019-04-20T10:36:48.930Z,60.20
2019-04-20T10:39:20.403Z,59.70
2019-04-20T10:41:54.303Z,58.80
2019-04-20T10:44:20.906Z,58.80
2019-04-20T10:46:51.071Z,57.90
2019-04-20T10:49:20.232Z,58.70
2019-04-20T10:51:49.572Z,55.20
2019-04-20T10:54:18.665Z,54.80
2019-04-20T10:56:47.803Z,56.50
2019-04-20T10:59:19.561Z,56.40
2019-04-20T11:01:49.662Z,57.70
2019-04-20T11:04:18.843Z,57.00
2019-04-20T11:06:48.770Z,54.90
2019-04-20T11:09:18.557Z,52.00
2019-04-20T11:11:48.295Z,52.10
2019-04-20T11:14:24.650Z,54.80
2019-04-20T11:16:48.541Z,55.60
2019-04-20T11:19:18.924Z,55.60
2019-04-20T11:21:48.264Z,57.20
2019-04-20T11:24:18.313Z,58.10
2019-04-20T11:26:47.408Z,59.50
2019-04-20T11:29:16.328Z,58.10
2019-04-20T11:31:49.270Z,57.90
2019-04-20T11:34:23.538Z,57.30
2019-04-20T11:36:46.455Z,58.20
2019-04-20T11:39:16.758Z,58.30
2019-04-20T11:41:45.970Z,58.00
2019-04-20T11:44:15.763Z,56.10
2019-04-20T11:46:44.945Z,54.70
2019-04-20T11:49:15.345Z,57.00
2019-04-20T11:51:45.531Z,55.70
2019-04-20T11:54:16.353Z,55.30
2019-04-20T11:56:47.242Z,56.70
2019-04-20T11:59:18.903Z,57.50
2019-04-20T12:01:59.078Z,56.00
2019-04-20T12:04:40.874Z,57.60
2019-04-20T12:07:01.530Z,58.40
2019-04-20T12:09:31.827Z,58.80
2019-04-20T12:12:11.908Z,57.40
2019-04-20T12:14:32.650Z,56.70
2019-04-20T12:17:01.859Z,56.70
2019-04-20T12:19:31.179Z,57.20
2019-04-20T12:22:00.286Z,55.50
2019-04-20T12:24:29.224Z,56.00
2019-04-20T12:26:58.680Z,55.40
2019-04-20T12:29:28.045Z,57.30
2019-04-20T12:32:00.026Z,53.90
2019-04-20T12:34:28.700Z,54.40
2019-04-20T12:36:58.445Z,53.70
2019-04-20T12:39:27.519Z,54.80
2019-04-20T12:42:00.037Z,52.10
2019-04-20T12:44:28.020Z,54.40
2019-04-20T12:46:57.211Z,51.30
2019-04-20T12:49:27.577Z,51.00
2019-04-20T12:52:00.260Z,52.00
2019-04-20T12:54:27.228Z,53.50
2019-04-20T12:56:56.387Z,52.50
2019-04-20T12:59:25.627Z,51.60
2019-04-20T13:01:55.396Z,52.10
2019-04-20T13:04:24.695Z,50.30
2019-04-20T13:06:55.340Z,52.70
2019-04-20T13:09:28.375Z,48.10
2019-04-20T13:12:05.374Z,48.40
2019-04-20T13:14:52.782Z,44.00
2019-04-20T13:17:22.158Z,46.50
2019-04-20T13:19:51.350Z,46.20
2019-04-20T13:22:21.106Z,44.50
2019-04-20T13:24:50.309Z,43.30
2019-04-20T13:27:19.234Z,44.00
2019-04-20T13:29:50.805Z,44.00
2019-04-20T13:32:20.102Z,43.80
2019-04-20T13:34:49.960Z,43.50
2019-04-20T13:37:20.112Z,41.80
2019-04-20T13:39:50.872Z,45.20
2019-04-20T13:42:24.466Z,42.50
2019-04-20T13:44:50.847Z,41.50
2019-04-20T13:47:20.962Z,43.30
2019-04-20T13:49:51.188Z,41.80
2019-04-20T13:52:20.682Z,41.00
2019-04-20T13:54:49.753Z,42.60
2019-04-20T13:57:29.297Z,43.80
2019-04-20T14:00:00.080Z,42.20
2019-04-20T14:02:30.981Z,39.80
2019-04-20T14:05:02.823Z,41.20
2019-04-20T14:07:33.464Z,41.80
2019-04-20T14:10:09.217Z,42.20
2019-04-20T14:13:02.614Z,41.30
2019-04-20T14:15:29.151Z,40.80
2019-04-20T14:18:11.620Z,40.90
2019-04-20T14:20:40.355Z,42.00
2019-04-20T14:23:09.942Z,42.10
2019-04-20T14:25:45.130Z,41.60
2019-04-20T14:28:15.416Z,40.10
2019-04-20T14:30:45.795Z,40.10
2019-04-20T14:33:14.939Z,41.50
2019-04-20T14:35:45.062Z,41.60
2019-04-20T14:38:15.407Z,40.40
2019-04-20T14:40:46.502Z,39.90
2019-04-20T14:43:19.223Z,40.50
2019-04-20T14:45:48.542Z,39.70
2019-04-20T14:48:22.781Z,40.30
2019-04-20T14:50:53.774Z,41.00
2019-04-20T14:53:23.251Z,39.30
2019-04-20T14:55:53.678Z,41.40
2019-04-20T14:58:42.126Z,42.50
2019-04-20T15:01:14.354Z,43.20
2019-04-20T15:03:43.896Z,41.90
2019-04-20T15:06:14.216Z,39.60
2019-04-20T15:08:43.122Z,41.30
2019-04-20T15:11:12.700Z,42.10
2019-04-20T15:13:42.614Z,43.50
2019-04-20T15:16:12.855Z,44.10
2019-04-20T15:18:59.809Z,44.90
2019-04-20T15:21:31.405Z,43.60
2019-04-20T15:24:01.630Z,44.50
2019-04-20T15:26:30.887Z,42.70
2019-04-20T15:29:00.061Z,43.20
2019-04-20T15:31:30.090Z,43.30
2019-04-20T15:33:59.310Z,43.50
2019-04-20T15:36:28.530Z,43.50
2019-04-20T15:38:58.784Z,43.10
2019-04-20T15:41:29.319Z,43.60
2019-04-20T15:43:59.485Z,45.40
2019-04-20T15:46:31.234Z,44.10
2019-04-20T15:48:59.867Z,44.50
2019-04-20T15:51:29.997Z,45.10
2019-04-20T15:53:59.785Z,43.40
2019-04-20T15:56:29.156Z,42.50
2019-04-20T15:58:58.749Z,44.20
2019-04-20T16:01:30.420Z,43.30
2019-04-20T16:04:01.541Z,40.70
2019-04-20T16:06:32.652Z,40.80
2019-04-20T16:09:04.013Z,41.40
2019-04-20T16:11:41.225Z,41.60
2019-04-20T16:14:10.169Z,42.00
2019-04-20T16:16:42.548Z,42.60
2019-04-20T16:19:25.807Z,40.90
2019-04-20T16:21:43.799Z,40.80
2019-04-20T16:24:15.038Z,39.40
2019-04-20T16:26:45.735Z,38.00
2019-04-20T16:29:15.455Z,38.60
2019-04-20T16:31:47.252Z,38.00
2019-04-20T16:34:15.968Z,38.30
2019-04-20T16:36:46.265Z,37.10
2019-04-20T16:39:16.411Z,37.40
2019-04-20T16:41:46.451Z,37.50
2019-04-20T16:44:15.764Z,38.30
2019-04-20T16:46:45.816Z,38.00
2019-04-20T16:49:14.911Z,38.60
2019-04-20T16:51:45.008Z,39.30
2019-04-20T16:54:14.171Z,39.10
2019-04-20T16:56:43.072Z,39.00
2019-04-20T16:59:17.085Z,38.00
2019-04-20T17:01:46.637Z,39.40
2019-04-20T17:04:21.588Z,40.30
2019-04-20T17:07:03.629Z,41.00
2019-04-20T17:09:33.650Z,42.30
2019-04-20T17:12:03.664Z,41.70
2019-04-20T17:14:33.712Z,43.20
2019-04-20T17:17:03.944Z,42.50
2019-04-20T17:19:33.579Z,42.50
2019-04-20T17:22:05.544Z,42.20
2019-04-20T17:24:35.730Z,42.00
2019-04-20T17:27:23.778Z,42.80
2019-04-20T17:30:10.511Z,44.00
2019-04-20T17:32:41.004Z,44.80
2019-04-20T17:35:20.872Z,45.30
2019-04-20T17:37:43.715Z,45.90
2019-04-20T17:40:34.196Z,46.20
2019-04-20T17:42:53.145Z,47.10
2019-04-20T17:45:28.603Z,47.10
2019-04-20T17:48:02.125Z,47.20
2019-04-20T17:50:34.390Z,48.40
2019-04-20T17:53:03.575Z,48.80
2019-04-20T17:55:33.862Z,50.60
2019-04-20T17:57:59.356Z,50.80
2019-04-20T18:00:39.548Z,52.20
2019-04-20T18:03:43.512Z,53.10
2019-04-20T18:05:59.528Z,53.10
2019-04-20T18:08:33.520Z,54.40
2019-04-20T18:10:53.078Z,54.30
2019-04-20T18:13:20.368Z,55.00
2019-04-20T18:15:56.243Z,54.50
2019-04-20T18:18:42.091Z,54.40
2019-04-20T18:20:58.989Z,54.70
2019-04-20T18:23:34.411Z,55.20
2019-04-20T18:26:24.132Z,56.10
2019-04-20T18:28:52.912Z,56.40
2019-04-20T18:31:17.611Z,56.70
2019-04-20T18:33:46.921Z,56.90
2019-04-20T18:36:23.347Z,57.70
2019-04-20T18:38:56.013Z,57.70
2019-04-20T18:41:31.942Z,58.20
2019-04-20T18:43:53.475Z,58.70
2019-04-20T18:46:39.683Z,59.30
2019-04-20T18:49:06.918Z,60.30
2019-04-20T18:51:19.680Z,61.60
2019-04-20T18:53:50.455Z,62.20
2019-04-20T18:56:27.887Z,62.20
2019-04-20T18:58:51.183Z,62.70
2019-04-20T19:01:27.919Z,62.80
2019-04-20T19:03:54.024Z,63.10
2019-04-20T19:06:23.484Z,63.10
2019-04-20T19:08:53.767Z,63.80
2019-04-20T19:11:24.138Z,64.20
2019-04-20T19:14:14.847Z,65.50
2019-04-20T19:16:56.225Z,66.50
2019-04-20T19:19:28.128Z,66.50
2019-04-20T19:21:49.996Z,66.50
2019-04-20T19:24:21.787Z,66.70
2019-04-20T19:26:54.330Z,66.40
2019-04-20T19:29:30.082Z,66.00
2019-04-20T19:32:13.344Z,66.20
2019-04-20T19:34:38.048Z,65.70
2019-04-20T19:37:07.260Z,66.00
2019-04-20T19:39:39.857Z,66.10
2019-04-20T19:42:13.149Z,66.50
2019-04-20T19:44:53.808Z,68.20
2019-04-20T19:47:34.818Z,68.60
2019-04-20T19:50:00.406Z,69.00
2019-04-20T19:52:43.278Z,69.30
2019-04-20T19:55:06.989Z,69.50
2019-04-20T19:57:42.920Z,69.60
2019-04-20T19:59:58.180Z,69.50
2019-04-20T20:02:27.666Z,69.20
2019-04-20T20:05:02.699Z,69.10
2019-04-20T20:07:38.725Z,69.00
2019-04-20T20:10:08.623Z,69.30
2019-04-20T20:12:35.682Z,69.70
2019-04-20T20:15:14.815Z,70.20
2019-04-20T20:18:01.999Z,71.40
2019-04-20T20:20:32.387Z,72.50
2019-04-20T20:22:45.434Z,76.00
2019-04-20T20:25:17.043Z,79.90
2019-04-20T20:27:54.365Z,78.90
2019-04-20T20:30:32.845Z,78.50
2019-04-20T20:33:13.879Z,80.10
2019-04-20T20:35:29.316Z,81.30
2019-04-20T20:37:59.466Z,80.00
2019-04-20T20:40:32.804Z,77.60
2019-04-20T20:43:07.366Z,76.20
2019-04-20T20:45:38.336Z,76.50
2019-04-20T20:48:15.866Z,76.20
2019-04-20T20:50:50.193Z,76.70
2019-04-20T20:53:14.171Z,76.40
2019-04-20T20:55:40.723Z,77.00
2019-04-20T20:58:11.529Z,77.90
2019-04-20T21:00:45.821Z,78.20
2019-04-20T21:03:09.122Z,77.80
2019-04-20T21:05:35.671Z,77.70
2019-04-20T21:08:05.822Z,78.20
2019-04-20T21:10:40.466Z,78.30
2019-04-20T21:13:10.254Z,78.50
2019-04-20T21:15:40.583Z,79.10
2019-04-20T21:18:33.721Z,79.70
2019-04-20T21:21:02.056Z,80.80
2019-04-20T21:23:33.415Z,82.10
2019-04-20T21:26:12.714Z,83.40
2019-04-20T21:28:40.030Z,85.20
2019-04-20T21:31:15.977Z,87.10
2019-04-20T21:33:41.068Z,87.60
2019-04-20T21:36:13.452Z,87.60
2019-04-20T21:38:45.179Z,87.70
2019-04-20T21:41:18.592Z,87.60
2019-04-20T21:43:46.390Z,87.50
2019-04-20T21:46:16.559Z,85.60
2019-04-20T21:48:59.739Z,84.10
2019-04-20T21:51:30.379Z,83.30
2019-04-20T21:53:48.316Z,83.40
2019-04-20T21:56:24.232Z,83.80
2019-04-20T21:58:57.537Z,83.30
2019-04-20T22:01:32.342Z,84.80
2019-04-20T22:03:56.269Z,84.60
2019-04-20T22:06:26.637Z,86.30
2019-04-20T22:08:59.943Z,90.60
2019-04-20T22:11:27.170Z,91.20
2019-04-20T22:13:57.377Z,94.00
2019-04-20T22:16:36.384Z,94.70
2019-04-20T22:19:11.777Z,98.00
2019-04-20T22:21:45.058Z,98.50
2019-04-20T22:24:09.431Z,99.20
2019-04-20T22:26:39.423Z,99.70
2019-04-20T22:29:00.467Z,99.90
2019-04-20T22:31:29.905Z,99.90
2019-04-20T22:34:02.339Z,99.90
2019-04-20T22:36:34.408Z,99.90
2019-04-20T22:39:11.736Z,99.90
2019-04-20T22:41:48.241Z,99.90
2019-04-20T22:44:18.742Z,99.90
2019-04-20T22:46:45.561Z,99.90
2019-04-20T22:49:33.087Z,99.90
2019-04-20T22:51:55.718Z,99.90
2019-04-20T22:54:34.034Z,99.90
2019-04-20T22:56:57.003Z,99.90
2019-04-20T22:59:21.088Z,99.90
2019-04-20T23:01:53.598Z,99.90
2019-04-20T23:04:19.158Z,99.90
2019-04-20T23:06:50.280Z,99.90
2019-04-20T23:09:20.471Z,99.90
2019-04-20T23:11:49.562Z,99.90
2019-04-20T23:14:18.456Z,99.90
2019-04-20T23:16:51.788Z,99.90
2019-04-20T23:19:30.008Z,99.90
2019-04-20T23:21:55.729Z,99.90
2019-04-20T23:24:20.525Z,99.90
2019-04-20T23:26:50.834Z,99.90
2019-04-20T23:29:22.647Z,99.90
2019-04-20T23:34:24.755Z,99.90
2019-04-20T23:36:52.443Z,99.90
2019-04-20T23:39:23.239Z,99.90
2019-04-20T23:41:57.995Z,99.90
2019-04-20T23:44:31.554Z,99.90
2019-04-20T23:47:11.169Z,99.90
2019-04-20T23:49:53.962Z,99.90
2019-04-20T23:52:32.381Z,99.90
2019-04-20T23:54:46.668Z,99.90
2019-04-20T23:57:08.122Z,99.90
2019-04-20T23:59:40.835Z,99.90
